sensor_id;sensor_type;location;lat;lon;timestamp;temperature;humidity
46608;DHT22;32330;51.936;7.184;2023-04-12T03:51:20;8.70;92.50
46608;DHT22;32330;51.936;7.184;2023-04-12T03:53:51;8.70;92.80
46608;DHT22;32330;51.936;7.184;2023-04-12T03:56:19;8.70;92.80
46608;DHT22;32330;51.936;7.184;2023-04-12T03:58:50;8.70;93.00
46608;DHT22;32330;51.936;7.184;2023-04-12T04:01:19;8.70;92.90
46608;DHT22;32330;51.936;7.184;2023-04-12T04:03:47;8.70;92.50
46608;DHT22;32330;51.936;7.184;2023-04-12T04:06:22;8.70;92.40
46608;DHT22;32330;51.936;7.184;2023-04-12T04:08:52;8.70;93.90
46608;DHT22;32330;51.936;7.184;2023-04-12T04:11:25;8.70;93.50
46608;DHT22;32330;51.936;7.184;2023-04-12T04:14:03;8.70;93.90
46608;DHT22;32330;51.936;7.184;2023-04-12T04:16:30;8.70;93.70
46608;DHT22;32330;51.936;7.184;2023-04-12T04:18:59;8.70;93.60
46608;DHT22;32330;51.936;7.184;2023-04-12T04:21:28;8.70;93.30
46608;DHT22;32330;51.936;7.184;2023-04-12T04:23:58;8.70;94.60
46608;DHT22;32330;51.936;7.184;2023-04-12T04:26:28;8.70;95.00
46608;DHT22;32330;51.936;7.184;2023-04-12T04:29:04;8.60;95.50
46608;DHT22;32330;51.936;7.184;2023-04-12T04:31:38;8.70;95.10
46608;DHT22;32330;51.936;7.184;2023-04-12T04:34:06;8.70;95.20
46608;DHT22;32330;51.936;7.184;2023-04-12T04:36:41;8.70;95.00
46608;DHT22;32330;51.936;7.184;2023-04-12T04:39:09;8.70;94.80
46608;DHT22;32330;51.936;7.184;2023-04-12T04:41:38;8.70;95.20
46608;DHT22;32330;51.936;7.184;2023-04-12T04:44:16;8.70;95.30
46608;DHT22;32330;51.936;7.184;2023-04-12T04:46:54;8.70;95.10
46608;DHT22;32330;51.936;7.184;2023-04-12T04:49:24;8.70;95.70
46608;DHT22;32330;51.936;7.184;2023-04-12T04:51:52;8.70;96.00
46608;DHT22;32330;51.936;7.184;2023-04-12T04:54:21;8.80;95.60
46608;DHT22;32330;51.936;7.184;2023-04-12T04:56:48;8.70;95.70
46608;DHT22;32330;51.936;7.184;2023-04-12T04:59:17;8.70;96.10
46608;DHT22;32330;51.936;7.184;2023-04-12T05:01:44;8.70;96.50
46608;DHT22;32330;51.936;7.184;2023-04-12T05:04:14;8.70;96.30
46608;DHT22;32330;51.936;7.184;2023-04-12T05:06:41;8.70;96.80
46608;DHT22;32330;51.936;7.184;2023-04-12T05:09:11;8.80;96.90
46608;DHT22;32330;51.936;7.184;2023-04-12T05:11:44;8.70;96.30
46608;DHT22;32330;51.936;7.184;2023-04-12T05:14:12;8.80;95.70
46608;DHT22;32330;51.936;7.184;2023-04-12T05:16:39;8.80;96.80
46608;DHT22;32330;51.936;7.184;2023-04-12T05:19:06;8.80;97.20
46608;DHT22;32330;51.936;7.184;2023-04-12T05:21:33;8.80;98.70
46608;DHT22;32330;51.936;7.184;2023-04-12T05:24:00;8.80;99.50
46608;DHT22;32330;51.936;7.184;2023-04-12T05:26:31;8.70;99.90
46608;DHT22;32330;51.936;7.184;2023-04-12T05:28:59;8.80;99.90
46608;DHT22;32330;51.936;7.184;2023-04-12T05:31:26;8.70;99.90
46608;DHT22;32330;51.936;7.184;2023-04-12T05:33:54;8.70;99.90
46608;DHT22;32330;51.936;7.184;2023-04-12T05:36:28;8.70;99.90
46608;DHT22;32330;51.936;7.184;2023-04-12T05:39:03;8.60;99.90
46608;DHT22;32330;51.936;7.184;2023-04-12T05:41:34;8.60;99.90
46608;DHT22;32330;51.936;7.184;2023-04-12T05:44:01;8.60;99.90
46608;DHT22;32330;51.936;7.184;2023-04-12T05:46:29;8.60;99.90
46608;DHT22;32330;51.936;7.184;2023-04-12T05:48:56;8.60;99.90
46608;DHT22;32330;51.936;7.184;2023-04-12T05:51:24;8.60;99.90
46608;DHT22;32330;51.936;7.184;2023-04-12T05:53:51;8.60;99.90
46608;DHT22;32330;51.936;7.184;2023-04-12T05:56:18;8.60;99.90
46608;DHT22;32330;51.936;7.184;2023-04-12T05:58:48;8.50;99.90
46608;DHT22;32330;51.936;7.184;2023-04-12T06:01:16;8.50;99.90
46608;DHT22;32330;51.936;7.184;2023-04-12T06:03:47;8.50;99.90
46608;DHT22;32330;51.936;7.184;2023-04-12T06:06:14;8.50;99.90
46608;DHT22;32330;51.936;7.184;2023-04-12T06:08:41;8.50;99.90
46608;DHT22;32330;51.936;7.184;2023-04-12T06:11:08;8.50;99.90
46608;DHT22;32330;51.936;7.184;2023-04-12T06:13:37;8.50;99.90
46608;DHT22;32330;51.936;7.184;2023-04-12T06:16:06;8.50;99.90
46608;DHT22;32330;51.936;7.184;2023-04-12T06:18:33;8.50;99.90
46608;DHT22;32330;51.936;7.184;2023-04-12T06:21:00;8.50;99.90
46608;DHT22;32330;51.936;7.184;2023-04-12T06:23:27;8.60;99.90
46608;DHT22;32330;51.936;7.184;2023-04-12T06:25:54;8.60;99.90
46608;DHT22;32330;51.936;7.184;2023-04-12T06:28:21;8.60;99.90
46608;DHT22;32330;51.936;7.184;2023-04-12T06:30:50;8.60;99.90
46608;DHT22;32330;51.936;7.184;2023-04-12T06:33:19;8.60;99.90
46608;DHT22;32330;51.936;7.184;2023-04-12T06:35:48;8.60;99.90
46608;DHT22;32330;51.936;7.184;2023-04-12T06:38:20;8.60;99.90
46608;DHT22;32330;51.936;7.184;2023-04-12T06:44:46;8.70;99.90
46608;DHT22;32330;51.936;7.184;2023-04-12T06:47:13;8.70;99.90
46608;DHT22;32330;51.936;7.184;2023-04-12T06:49:42;8.70;99.90
46608;DHT22;32330;51.936;7.184;2023-04-12T06:52:09;8.80;99.90
46608;DHT22;32330;51.936;7.184;2023-04-12T06:54:35;8.80;99.90
46608;DHT22;32330;51.936;7.184;2023-04-12T06:57:03;8.80;99.90
46608;DHT22;32330;51.936;7.184;2023-04-12T06:59:34;8.80;99.90
46608;DHT22;32330;51.936;7.184;2023-04-12T07:02:02;8.90;99.90
46608;DHT22;32330;51.936;7.184;2023-04-12T07:04:28;8.80;99.90
46608;DHT22;32330;51.936;7.184;2023-04-12T07:06:57;8.80;99.90
46608;DHT22;32330;51.936;7.184;2023-04-12T07:09:24;8.80;99.90
46608;DHT22;32330;51.936;7.184;2023-04-12T07:11:51;8.80;99.90
46608;DHT22;32330;51.936;7.184;2023-04-12T07:14:18;8.80;99.90
46608;DHT22;32330;51.936;7.184;2023-04-12T07:16:45;8.80;99.90
46608;DHT22;32330;51.936;7.184;2023-04-12T07:19:12;8.80;99.90
46608;DHT22;32330;51.936;7.184;2023-04-12T07:21:38;8.80;99.90
46608;DHT22;32330;51.936;7.184;2023-04-12T07:24:07;8.80;99.90
46608;DHT22;32330;51.936;7.184;2023-04-12T07:26:34;8.80;99.90
46608;DHT22;32330;51.936;7.184;2023-04-12T07:29:01;8.90;99.90
46608;DHT22;32330;51.936;7.184;2023-04-12T07:31:28;8.90;99.90
46608;DHT22;32330;51.936;7.184;2023-04-12T07:33:56;8.90;99.90
46608;DHT22;32330;51.936;7.184;2023-04-12T07:36:22;8.80;99.90
46608;DHT22;32330;51.936;7.184;2023-04-12T07:38:51;8.90;99.90
46608;DHT22;32330;51.936;7.184;2023-04-12T07:41:22;8.80;99.90
46608;DHT22;32330;51.936;7.184;2023-04-12T07:43:49;8.90;99.90
46608;DHT22;32330;51.936;7.184;2023-04-12T07:46:16;8.90;99.90
46608;DHT22;32330;51.936;7.184;2023-04-12T07:48:43;8.90;99.90
46608;DHT22;32330;51.936;7.184;2023-04-12T07:51:10;8.90;99.90
46608;DHT22;32330;51.936;7.184;2023-04-12T07:53:37;8.90;99.90
46608;DHT22;32330;51.936;7.184;2023-04-12T07:56:07;8.90;99.90
46608;DHT22;32330;51.936;7.184;2023-04-12T07:58:35;8.90;99.90
46608;DHT22;32330;51.936;7.184;2023-04-12T08:01:02;8.90;99.90
46608;DHT22;32330;51.936;7.184;2023-04-12T08:03:29;8.90;99.90
46608;DHT22;32330;51.936;7.184;2023-04-12T08:05:56;9.00;99.90
46608;DHT22;32330;51.936;7.184;2023-04-12T08:08:23;9.00;99.90
46608;DHT22;32330;51.936;7.184;2023-04-12T08:10:51;9.00;99.90
46608;DHT22;32330;51.936;7.184;2023-04-12T08:13:18;9.00;99.90
46608;DHT22;32330;51.936;7.184;2023-04-12T08:15:46;9.00;99.90
46608;DHT22;32330;51.936;7.184;2023-04-12T08:18:13;9.10;99.90
46608;DHT22;32330;51.936;7.184;2023-04-12T08:20:40;9.10;99.90
46608;DHT22;32330;51.936;7.184;2023-04-12T08:23:09;9.20;99.90
46608;DHT22;32330;51.936;7.184;2023-04-12T08:25:36;9.30;99.90
46608;DHT22;32330;51.936;7.184;2023-04-12T08:28:03;9.20;99.90
46608;DHT22;32330;51.936;7.184;2023-04-12T08:30:32;9.20;99.90
46608;DHT22;32330;51.936;7.184;2023-04-12T08:33:00;9.20;99.90
46608;DHT22;32330;51.936;7.184;2023-04-12T08:35:27;9.20;99.90
46608;DHT22;32330;51.936;7.184;2023-04-12T08:37:54;9.20;99.90
46608;DHT22;32330;51.936;7.184;2023-04-12T08:40:21;9.30;99.90
46608;DHT22;32330;51.936;7.184;2023-04-12T08:42:48;9.40;99.90
46608;DHT22;32330;51.936;7.184;2023-04-12T08:45:18;9.50;99.90
46608;DHT22;32330;51.936;7.184;2023-04-12T08:47:48;9.60;99.90
46608;DHT22;32330;51.936;7.184;2023-04-12T08:50:17;9.70;99.90
46608;DHT22;32330;51.936;7.184;2023-04-12T08:52:48;9.70;99.90
46608;DHT22;32330;51.936;7.184;2023-04-12T08:55:15;9.60;99.90
46608;DHT22;32330;51.936;7.184;2023-04-12T08:57:42;9.60;99.90
46608;DHT22;32330;51.936;7.184;2023-04-12T09:00:10;9.70;99.90
46608;DHT22;32330;51.936;7.184;2023-04-12T09:02:39;9.70;99.90
46608;DHT22;32330;51.936;7.184;2023-04-12T09:05:08;9.70;99.90
46608;DHT22;32330;51.936;7.184;2023-04-12T09:07:36;9.70;99.90
46608;DHT22;32330;51.936;7.184;2023-04-12T09:10:04;9.70;99.90
46608;DHT22;32330;51.936;7.184;2023-04-12T09:12:33;9.70;99.90
46608;DHT22;32330;51.936;7.184;2023-04-12T09:15:08;9.70;99.90
46608;DHT22;32330;51.936;7.184;2023-04-12T09:17:37;9.70;99.90
46608;DHT22;32330;51.936;7.184;2023-04-12T09:20:21;9.70;99.90
46608;DHT22;32330;51.936;7.184;2023-04-12T09:22:51;9.70;99.90
46608;DHT22;32330;51.936;7.184;2023-04-12T09:25:35;9.70;99.90
46608;DHT22;32330;51.936;7.184;2023-04-12T09:28:04;9.80;99.90
46608;DHT22;32330;51.936;7.184;2023-04-12T09:30:42;9.80;99.90
46608;DHT22;32330;51.936;7.184;2023-04-12T09:33:10;9.80;99.90
46608;DHT22;32330;51.936;7.184;2023-04-12T09:35:37;9.80;99.90
46608;DHT22;32330;51.936;7.184;2023-04-12T09:38:08;9.80;99.90
46608;DHT22;32330;51.936;7.184;2023-04-12T09:40:36;9.90;99.90
46608;DHT22;32330;51.936;7.184;2023-04-12T09:43:03;10.00;99.90
46608;DHT22;32330;51.936;7.184;2023-04-12T09:45:36;10.00;99.90
46608;DHT22;32330;51.936;7.184;2023-04-12T09:48:05;10.10;99.90
46608;DHT22;32330;51.936;7.184;2023-04-12T09:50:32;10.10;99.90
46608;DHT22;32330;51.936;7.184;2023-04-12T09:53:00;10.10;99.90
46608;DHT22;32330;51.936;7.184;2023-04-12T09:55:30;10.10;99.90
46608;DHT22;32330;51.936;7.184;2023-04-12T09:58:01;10.10;99.90
46608;DHT22;32330;51.936;7.184;2023-04-12T10:00:29;10.20;99.90
46608;DHT22;32330;51.936;7.184;2023-04-12T10:02:59;10.20;99.90
46608;DHT22;32330;51.936;7.184;2023-04-12T10:05:26;10.30;99.90
46608;DHT22;32330;51.936;7.184;2023-04-12T10:07:54;10.30;99.90
46608;DHT22;32330;51.936;7.184;2023-04-12T10:10:23;10.50;99.90
46608;DHT22;32330;51.936;7.184;2023-04-12T10:12:52;10.70;99.90
46608;DHT22;32330;51.936;7.184;2023-04-12T10:15:21;10.80;99.90
46608;DHT22;32330;51.936;7.184;2023-04-12T10:17:55;11.00;99.90
46608;DHT22;32330;51.936;7.184;2023-04-12T10:20:22;11.10;99.90
46608;DHT22;32330;51.936;7.184;2023-04-12T10:22:52;11.30;99.90
46608;DHT22;32330;51.936;7.184;2023-04-12T10:25:23;11.70;99.90
46608;DHT22;32330;51.936;7.184;2023-04-12T10:27:53;11.70;99.90
46608;DHT22;32330;51.936;7.184;2023-04-12T10:30:21;11.70;99.90
46608;DHT22;32330;51.936;7.184;2023-04-12T10:35:52;11.70;99.90
46608;DHT22;32330;51.936;7.184;2023-04-12T10:38:19;11.70;99.90
46608;DHT22;32330;51.936;7.184;2023-04-12T10:41:14;11.80;99.90
46608;DHT22;32330;51.936;7.184;2023-04-12T10:43:43;11.70;99.90
46608;DHT22;32330;51.936;7.184;2023-04-12T10:49:18;11.80;99.90
46608;DHT22;32330;51.936;7.184;2023-04-12T10:52:10;11.50;99.90
46608;DHT22;32330;51.936;7.184;2023-04-12T10:54:38;11.40;99.90
46608;DHT22;32330;51.936;7.184;2023-04-12T10:57:06;11.30;99.90
46608;DHT22;32330;51.936;7.184;2023-04-12T10:59:53;11.00;99.90
46608;DHT22;32330;51.936;7.184;2023-04-12T11:02:21;10.80;99.90
46608;DHT22;32330;51.936;7.184;2023-04-12T11:05:05;10.80;99.90
46608;DHT22;32330;51.936;7.184;2023-04-12T11:07:52;10.70;99.90
46608;DHT22;32330;51.936;7.184;2023-04-12T11:10:40;10.80;99.90
46608;DHT22;32330;51.936;7.184;2023-04-12T11:13:13;10.80;99.90
46608;DHT22;32330;51.936;7.184;2023-04-12T11:15:43;10.90;99.90
46608;DHT22;32330;51.936;7.184;2023-04-12T11:18:12;10.90;99.90
46608;DHT22;32330;51.936;7.184;2023-04-12T11:20:40;11.10;99.90
46608;DHT22;32330;51.936;7.184;2023-04-12T11:23:07;11.20;99.90
46608;DHT22;32330;51.936;7.184;2023-04-12T11:25:36;11.30;99.90
46608;DHT22;32330;51.936;7.184;2023-04-12T11:28:03;11.20;99.90
46608;DHT22;32330;51.936;7.184;2023-04-12T11:30:30;11.20;99.90
46608;DHT22;32330;51.936;7.184;2023-04-12T11:32:59;11.20;99.90
46608;DHT22;32330;51.936;7.184;2023-04-12T11:35:29;11.20;99.90
46608;DHT22;32330;51.936;7.184;2023-04-12T11:37:59;11.10;99.90
46608;DHT22;32330;51.936;7.184;2023-04-12T11:40:26;11.30;99.90
46608;DHT22;32330;51.936;7.184;2023-04-12T11:42:53;11.30;99.90
46608;DHT22;32330;51.936;7.184;2023-04-12T11:45:22;11.50;99.90
46608;DHT22;32330;51.936;7.184;2023-04-12T11:47:49;11.60;99.90
46608;DHT22;32330;51.936;7.184;2023-04-12T11:50:28;11.90;99.90
46608;DHT22;32330;51.936;7.184;2023-04-12T11:53:08;12.00;99.90
46608;DHT22;32330;51.936;7.184;2023-04-12T11:55:36;12.20;99.90
46608;DHT22;32330;51.936;7.184;2023-04-12T11:58:03;12.30;99.90
46608;DHT22;32330;51.936;7.184;2023-04-12T12:00:30;12.50;99.90
46608;DHT22;32330;51.936;7.184;2023-04-12T12:02:57;12.70;99.90
46608;DHT22;32330;51.936;7.184;2023-04-12T12:05:24;12.80;98.10
46608;DHT22;32330;51.936;7.184;2023-04-12T12:07:53;12.70;99.90
46608;DHT22;32330;51.936;7.184;2023-04-12T12:10:20;12.70;99.90
46608;DHT22;32330;51.936;7.184;2023-04-12T12:12:47;12.70;99.90
46608;DHT22;32330;51.936;7.184;2023-04-12T12:15:14;12.70;88.70
46608;DHT22;32330;51.936;7.184;2023-04-12T12:17:41;12.60;84.30
46608;DHT22;32330;51.936;7.184;2023-04-12T12:20:18;12.60;82.90
46608;DHT22;32330;51.936;7.184;2023-04-12T12:22:46;12.80;91.80
46608;DHT22;32330;51.936;7.184;2023-04-12T12:25:16;12.80;94.00
46608;DHT22;32330;51.936;7.184;2023-04-12T12:27:43;13.00;98.00
46608;DHT22;32330;51.936;7.184;2023-04-12T12:30:16;13.10;76.30
46608;DHT22;32330;51.936;7.184;2023-04-12T12:32:43;13.20;88.30
46608;DHT22;32330;51.936;7.184;2023-04-12T12:35:11;13.60;92.00
46608;DHT22;32330;51.936;7.184;2023-04-12T12:37:48;13.80;69.10
46608;DHT22;32330;51.936;7.184;2023-04-12T12:40:17;14.00;78.50
46608;DHT22;32330;51.936;7.184;2023-04-12T12:42:47;14.10;36.60
46608;DHT22;32330;51.936;7.184;2023-04-12T12:45:16;14.10;24.10
46608;DHT22;32330;51.936;7.184;2023-04-12T12:47:47;14.20;35.20
46608;DHT22;32330;51.936;7.184;2023-04-12T12:50:15;14.50;1.00
46608;DHT22;32330;51.936;7.184;2023-04-12T12:52:49;14.50;1.00
46608;DHT22;32330;51.936;7.184;2023-04-12T12:55:18;14.80;1.00
46608;DHT22;32330;51.936;7.184;2023-04-12T12:57:47;14.80;1.00
46608;DHT22;32330;51.936;7.184;2023-04-12T13:00:15;14.70;1.00
46608;DHT22;32330;51.936;7.184;2023-04-12T13:02:42;14.70;1.00
46608;DHT22;32330;51.936;7.184;2023-04-12T13:05:10;14.90;1.00
46608;DHT22;32330;51.936;7.184;2023-04-12T13:07:37;15.20;1.00
46608;DHT22;32330;51.936;7.184;2023-04-12T13:10:05;15.30;99.90
46608;DHT22;32330;51.936;7.184;2023-04-12T13:12:33;15.50;99.90
46608;DHT22;32330;51.936;7.184;2023-04-12T13:15:01;15.70;99.90
46608;DHT22;32330;51.936;7.184;2023-04-12T13:17:28;15.80;71.20
46608;DHT22;32330;51.936;7.184;2023-04-12T13:19:56;16.20;1.00
46608;DHT22;32330;51.936;7.184;2023-04-12T13:22:23;16.50;99.90
46608;DHT22;32330;51.936;7.184;2023-04-12T13:24:50;16.50;99.90
46608;DHT22;32330;51.936;7.184;2023-04-12T13:27:17;16.30;61.80
46608;DHT22;32330;51.936;7.184;2023-04-12T13:29:45;16.80;44.30
46608;DHT22;32330;51.936;7.184;2023-04-12T13:32:12;17.00;99.90
46608;DHT22;32330;51.936;7.184;2023-04-12T13:34:39;16.80;1.00
46608;DHT22;32330;51.936;7.184;2023-04-12T13:37:06;16.40;99.90
46608;DHT22;32330;51.936;7.184;2023-04-12T13:39:33;16.10;1.00
46608;DHT22;32330;51.936;7.184;2023-04-12T13:42:01;15.90;99.90
46608;DHT22;32330;51.936;7.184;2023-04-12T13:44:28;15.80;39.40
46608;DHT22;32330;51.936;7.184;2023-04-12T13:46:56;15.70;21.50
46608;DHT22;32330;51.936;7.184;2023-04-12T13:49:23;15.60;99.90
46608;DHT22;32330;51.936;7.184;2023-04-12T13:51:50;15.40;39.60
46608;DHT22;32330;51.936;7.184;2023-04-12T13:54:17;15.30;99.90
46608;DHT22;32330;51.936;7.184;2023-04-12T13:56:44;15.30;27.20
46608;DHT22;32330;51.936;7.184;2023-04-12T13:59:10;14.90;99.90
46608;DHT22;32330;51.936;7.184;2023-04-12T14:01:37;14.70;99.90
46608;DHT22;32330;51.936;7.184;2023-04-12T14:04:06;13.80;99.90
46608;DHT22;32330;51.936;7.184;2023-04-12T14:06:33;13.50;1.00
46608;DHT22;32330;51.936;7.184;2023-04-12T14:09:01;13.00;1.00
46608;DHT22;32330;51.936;7.184;2023-04-12T14:11:30;12.90;1.00
46608;DHT22;32330;51.936;7.184;2023-04-12T14:14:09;12.90;25.60
46608;DHT22;32330;51.936;7.184;2023-04-12T14:16:36;12.60;22.70
46608;DHT22;32330;51.936;7.184;2023-04-12T14:19:03;12.50;26.90
46608;DHT22;32330;51.936;7.184;2023-04-12T14:21:32;12.30;35.20
46608;DHT22;32330;51.936;7.184;2023-04-12T14:23:58;12.00;39.20
46608;DHT22;32330;51.936;7.184;2023-04-12T14:26:25;11.80;55.40
46608;DHT22;32330;51.936;7.184;2023-04-12T14:28:52;11.80;59.00
46608;DHT22;32330;51.936;7.184;2023-04-12T14:31:19;11.60;80.30
46608;DHT22;32330;51.936;7.184;2023-04-12T14:33:46;11.40;75.00
46608;DHT22;32330;51.936;7.184;2023-04-12T14:36:13;11.40;69.30
46608;DHT22;32330;51.936;7.184;2023-04-12T14:38:41;11.30;76.90
46608;DHT22;32330;51.936;7.184;2023-04-12T14:41:10;11.10;75.10
46608;DHT22;32330;51.936;7.184;2023-04-12T14:43:37;10.80;82.20
46608;DHT22;32330;51.936;7.184;2023-04-12T14:46:04;10.80;87.40
46608;DHT22;32330;51.936;7.184;2023-04-12T14:48:31;10.80;90.80
46608;DHT22;32330;51.936;7.184;2023-04-12T14:50:58;10.80;83.30
46608;DHT22;32330;51.936;7.184;2023-04-12T14:53:25;10.80;85.60
46608;DHT22;32330;51.936;7.184;2023-04-12T14:55:53;10.90;89.50
46608;DHT22;32330;51.936;7.184;2023-04-12T14:58:20;10.80;84.60
46608;DHT22;32330;51.936;7.184;2023-04-12T15:00:47;10.90;90.80
46608;DHT22;32330;51.936;7.184;2023-04-12T15:03:14;11.00;89.50
46608;DHT22;32330;51.936;7.184;2023-04-12T15:05:41;11.00;82.70
46608;DHT22;32330;51.936;7.184;2023-04-12T15:08:08;11.00;80.80
46608;DHT22;32330;51.936;7.184;2023-04-12T15:10:35;10.90;78.90
46608;DHT22;32330;51.936;7.184;2023-04-12T15:13:03;10.90;84.20
46608;DHT22;32330;51.936;7.184;2023-04-12T15:15:30;10.80;72.30
46608;DHT22;32330;51.936;7.184;2023-04-12T15:17:57;10.60;86.90
46608;DHT22;32330;51.936;7.184;2023-04-12T15:20:24;10.60;93.90
46608;DHT22;32330;51.936;7.184;2023-04-12T15:22:51;10.50;91.80
46608;DHT22;32330;51.936;7.184;2023-04-12T15:25:18;10.50;93.50
46608;DHT22;32330;51.936;7.184;2023-04-12T15:27:45;10.50;93.50
46608;DHT22;32330;51.936;7.184;2023-04-12T15:30:14;10.60;95.10
46608;DHT22;32330;51.936;7.184;2023-04-12T15:32:42;10.60;94.10
46608;DHT22;32330;51.936;7.184;2023-04-12T15:35:10;10.50;92.90
46608;DHT22;32330;51.936;7.184;2023-04-12T15:37:37;10.40;96.80
46608;DHT22;32330;51.936;7.184;2023-04-12T15:40:06;10.40;99.40
46608;DHT22;32330;51.936;7.184;2023-04-12T15:42:39;10.30;99.90
46608;DHT22;32330;51.936;7.184;2023-04-12T15:45:07;10.30;99.90
46608;DHT22;32330;51.936;7.184;2023-04-12T15:47:36;10.20;99.90
46608;DHT22;32330;51.936;7.184;2023-04-12T15:50:03;10.20;99.90
46608;DHT22;32330;51.936;7.184;2023-04-12T15:52:30;10.20;99.90
46608;DHT22;32330;51.936;7.184;2023-04-12T15:54:57;10.10;99.90
46608;DHT22;32330;51.936;7.184;2023-04-12T15:57:24;10.00;99.90
46608;DHT22;32330;51.936;7.184;2023-04-12T15:59:52;10.20;99.90
46608;DHT22;32330;51.936;7.184;2023-04-12T16:02:20;9.90;99.90
46608;DHT22;32330;51.936;7.184;2023-04-12T16:04:48;10.00;99.90
46608;DHT22;32330;51.936;7.184;2023-04-12T16:07:16;10.10;99.90
46608;DHT22;32330;51.936;7.184;2023-04-12T16:09:43;10.30;99.90
46608;DHT22;32330;51.936;7.184;2023-04-12T16:12:10;10.30;99.90
46608;DHT22;32330;51.936;7.184;2023-04-12T16:14:37;10.30;99.90
46608;DHT22;32330;51.936;7.184;2023-04-12T16:17:04;10.30;99.90
46608;DHT22;32330;51.936;7.184;2023-04-12T16:19:32;10.40;99.90
46608;DHT22;32330;51.936;7.184;2023-04-12T16:22:00;10.40;99.30
46608;DHT22;32330;51.936;7.184;2023-04-12T16:24:28;10.40;92.50
46608;DHT22;32330;51.936;7.184;2023-04-12T16:26:55;10.40;85.60
46608;DHT22;32330;51.936;7.184;2023-04-12T16:29:22;10.50;63.80
46608;DHT22;32330;51.936;7.184;2023-04-12T16:31:49;10.70;70.00
46608;DHT22;32330;51.936;7.184;2023-04-12T16:34:17;10.80;49.10
46608;DHT22;32330;51.936;7.184;2023-04-12T16:36:47;11.10;52.00
46608;DHT22;32330;51.936;7.184;2023-04-12T16:39:15;11.10;42.40
46608;DHT22;32330;51.936;7.184;2023-04-12T16:41:43;11.20;33.00
46608;DHT22;32330;51.936;7.184;2023-04-12T16:44:15;11.30;35.60
46608;DHT22;32330;51.936;7.184;2023-04-12T16:46:42;11.10;27.90
46608;DHT22;32330;51.936;7.184;2023-04-12T16:49:09;11.20;28.20
46608;DHT22;32330;51.936;7.184;2023-04-12T16:51:36;11.00;27.10
46608;DHT22;32330;51.936;7.184;2023-04-12T16:54:03;10.30;15.30
46608;DHT22;32330;51.936;7.184;2023-04-12T16:56:32;9.90;22.60
46608;DHT22;32330;51.936;7.184;2023-04-12T16:58:59;9.70;34.30
46608;DHT22;32330;51.936;7.184;2023-04-12T17:01:26;9.70;37.60
46608;DHT22;32330;51.936;7.184;2023-04-12T17:03:53;9.60;49.80
46608;DHT22;32330;51.936;7.184;2023-04-12T17:06:19;9.50;59.10
46608;DHT22;32330;51.936;7.184;2023-04-12T17:08:46;9.50;66.60
46608;DHT22;32330;51.936;7.184;2023-04-12T17:11:13;9.30;70.30
46608;DHT22;32330;51.936;7.184;2023-04-12T17:13:42;9.30;68.30
46608;DHT22;32330;51.936;7.184;2023-04-12T17:16:11;9.40;66.60
46608;DHT22;32330;51.936;7.184;2023-04-12T17:18:40;9.30;61.80
46608;DHT22;32330;51.936;7.184;2023-04-12T17:21:08;9.40;67.40
46608;DHT22;32330;51.936;7.184;2023-04-12T17:23:35;9.40;59.60
46608;DHT22;32330;51.936;7.184;2023-04-12T17:26:03;9.40;65.10
46608;DHT22;32330;51.936;7.184;2023-04-12T17:28:31;9.40;65.50
46608;DHT22;32330;51.936;7.184;2023-04-12T17:31:01;9.40;64.10
46608;DHT22;32330;51.936;7.184;2023-04-12T17:33:28;9.50;58.60
46608;DHT22;32330;51.936;7.184;2023-04-12T17:35:55;9.60;62.20
46608;DHT22;32330;51.936;7.184;2023-04-12T17:38:22;9.80;67.90
46608;DHT22;32330;51.936;7.184;2023-04-12T17:40:49;9.80;63.00
46608;DHT22;32330;51.936;7.184;2023-04-12T17:43:16;9.70;54.50
46608;DHT22;32330;51.936;7.184;2023-04-12T17:45:43;9.70;55.10
46608;DHT22;32330;51.936;7.184;2023-04-12T17:48:11;9.70;50.90
46608;DHT22;32330;51.936;7.184;2023-04-12T17:50:39;9.50;57.60
46608;DHT22;32330;51.936;7.184;2023-04-12T17:53:06;9.50;55.60
46608;DHT22;32330;51.936;7.184;2023-04-12T17:55:35;9.40;62.40
46608;DHT22;32330;51.936;7.184;2023-04-12T17:58:03;9.30;62.50
46608;DHT22;32330;51.936;7.184;2023-04-12T18:00:30;9.30;58.10
46608;DHT22;32330;51.936;7.184;2023-04-12T18:02:57;9.20;56.10
46608;DHT22;32330;51.936;7.184;2023-04-12T18:05:25;9.10;59.10
46608;DHT22;32330;51.936;7.184;2023-04-12T18:07:53;9.10;58.90
46608;DHT22;32330;51.936;7.184;2023-04-12T18:10:21;9.10;62.10
46608;DHT22;32330;51.936;7.184;2023-04-12T18:12:51;9.00;62.50
46608;DHT22;32330;51.936;7.184;2023-04-12T18:15:18;8.90;63.40
46608;DHT22;32330;51.936;7.184;2023-04-12T18:17:46;8.90;66.70
46608;DHT22;32330;51.936;7.184;2023-04-12T18:20:13;8.90;69.40
46608;DHT22;32330;51.936;7.184;2023-04-12T18:22:42;8.80;67.80
46608;DHT22;32330;51.936;7.184;2023-04-12T18:25:09;8.70;72.10
46608;DHT22;32330;51.936;7.184;2023-04-12T18:27:37;8.70;69.30
46608;DHT22;32330;51.936;7.184;2023-04-12T18:30:06;8.60;65.30
46608;DHT22;32330;51.936;7.184;2023-04-12T18:32:34;8.60;61.50
46608;DHT22;32330;51.936;7.184;2023-04-12T18:35:01;8.50;64.00
46608;DHT22;32330;51.936;7.184;2023-04-12T18:37:29;8.30;60.20
46608;DHT22;32330;51.936;7.184;2023-04-12T18:39:57;8.30;60.60
46608;DHT22;32330;51.936;7.184;2023-04-12T18:42:25;8.30;58.70
46608;DHT22;32330;51.936;7.184;2023-04-12T18:44:52;8.20;54.30
46608;DHT22;32330;51.936;7.184;2023-04-12T18:47:20;8.20;58.20
46608;DHT22;32330;51.936;7.184;2023-04-12T18:49:47;8.20;53.60
46608;DHT22;32330;51.936;7.184;2023-04-12T18:52:15;8.10;54.90
46608;DHT22;32330;51.936;7.184;2023-04-12T18:54:42;8.10;56.40
46608;DHT22;32330;51.936;7.184;2023-04-12T18:57:10;8.00;56.80
46608;DHT22;32330;51.936;7.184;2023-04-12T18:59:37;7.90;57.30
46608;DHT22;32330;51.936;7.184;2023-04-12T19:02:04;7.90;62.30
46608;DHT22;32330;51.936;7.184;2023-04-12T19:04:32;7.80;62.60
46608;DHT22;32330;51.936;7.184;2023-04-12T19:07:00;7.80;60.90
46608;DHT22;32330;51.936;7.184;2023-04-12T19:09:27;7.70;63.40
46608;DHT22;32330;51.936;7.184;2023-04-12T19:11:54;7.70;62.40
46608;DHT22;32330;51.936;7.184;2023-04-12T19:14:22;7.60;65.80
46608;DHT22;32330;51.936;7.184;2023-04-12T19:16:52;7.60;69.30
46608;DHT22;32330;51.936;7.184;2023-04-12T19:19:19;7.50;74.30
